createdAt,value
2019-01-19T00:01:49.053Z,75.64
2019-01-19T00:04:43.910Z,75.23
2019-01-19T00:07:36.936Z,75.78
2019-01-19T00:10:45.774Z,75.51
2019-01-19T00:13:54.010Z,75.25
2019-01-19T00:16:46.992Z,75.47
2019-01-19T00:19:51.699Z,75.60
2019-01-19T00:22:27.251Z,76.08
2019-01-19T00:25:39.123Z,76.25
2019-01-19T00:28:15.683Z,75.76
2019-01-19T00:30:58.527Z,76.17
2019-01-19T00:33:51.866Z,76.32
2019-01-19T00:36:51.424Z,76.16
2019-01-19T00:39:56.450Z,77.07
2019-01-19T00:42:31.654Z,77.04
2019-01-19T00:45:35.092Z,76.71
2019-01-19T00:48:21.674Z,75.73
2019-01-19T00:51:44.579Z,75.40
2019-01-19T00:54:36.390Z,75.94
2019-01-19T00:57:42.519Z,75.47
2019-01-19T01:00:16.815Z,75.38
2019-01-19T01:03:34.811Z,75.30
2019-01-19T01:06:22.670Z,74.75
2019-01-19T01:09:37.847Z,74.87
2019-01-19T01:12:58.503Z,74.68
2019-01-19T01:15:46.516Z,75.86
2019-01-19T01:18:45.925Z,75.51
2019-01-19T01:21:35.468Z,75.24
2019-01-19T01:24:08.640Z,76.06
2019-01-19T01:26:53.637Z,76.72
2019-01-19T01:30:02.506Z,76.61
2019-01-19T01:33:02.581Z,76.19
2019-01-19T01:36:29.845Z,75.75
2019-01-19T01:39:24.082Z,75.07
2019-01-19T01:42:37.827Z,74.95
2019-01-19T01:45:43.773Z,75.17
2019-01-19T01:48:53.535Z,75.12
2019-01-19T01:51:48.451Z,74.83
2019-01-19T01:54:45.346Z,74.86
2019-01-19T01:57:29.650Z,74.43
2019-01-19T02:00:10.031Z,74.55
2019-01-19T02:03:00.362Z,74.72
2019-01-19T02:06:09.362Z,75.47
2019-01-19T02:09:05.694Z,76.05
2019-01-19T02:12:05.770Z,75.68
2019-01-19T02:15:01.539Z,76.76
2019-01-19T02:17:58.424Z,76.67
2019-01-19T02:20:54.930Z,76.18
2019-01-19T02:23:30.425Z,76.23
2019-01-19T02:26:37.679Z,75.97
2019-01-19T02:29:44.868Z,75.36
2019-01-19T02:33:06.862Z,74.70
2019-01-19T02:35:55.160Z,74.61
2019-01-19T02:39:28.390Z,74.71
2019-01-19T02:42:35.327Z,75.93
2019-01-19T02:45:27.382Z,76.25
2019-01-19T02:48:42.426Z,75.66
2019-01-19T02:51:37.866Z,75.28
2019-01-19T02:54:43.462Z,74.71
2019-01-19T02:57:51.304Z,75.33
2019-01-19T03:00:51.979Z,75.69
2019-01-19T03:03:55.033Z,75.36
2019-01-19T03:06:44.716Z,75.21
2019-01-19T03:09:26.398Z,74.93
2019-01-19T03:12:44.440Z,74.56
2019-01-19T03:15:55.294Z,74.54
2019-01-19T03:19:19.206Z,74.05
2019-01-19T03:22:30.266Z,74.79
2019-01-19T03:25:32.441Z,74.57
2019-01-19T03:28:17.833Z,74.01
2019-01-19T03:31:24.082Z,73.86
2019-01-19T03:34:31.712Z,74.29
2019-01-19T03:37:32.004Z,73.66
2019-01-19T03:40:41.151Z,74.16
2019-01-19T03:43:47.121Z,74.12
2019-01-19T03:46:53.185Z,74.48
2019-01-19T03:50:05.974Z,74.69
2019-01-19T03:53:16.066Z,74.34
2019-01-19T03:56:31.712Z,74.67
2019-01-19T03:59:39.244Z,74.16
2019-01-19T04:02:55.779Z,74.42
2019-01-19T04:05:39.923Z,74.45
2019-01-19T04:08:17.683Z,74.61
2019-01-19T04:11:03.363Z,74.82
2019-01-19T04:13:55.284Z,74.86
2019-01-19T04:16:55.552Z,74.94
2019-01-19T04:20:10.061Z,74.21
2019-01-19T04:22:46.950Z,73.86
2019-01-19T04:25:36.416Z,73.67
2019-01-19T04:28:04.421Z,73.97
2019-01-19T04:30:31.164Z,75.00
2019-01-19T04:32:57.853Z,74.97
2019-01-19T04:35:24.584Z,75.70
2019-01-19T04:37:51.797Z,75.13
2019-01-19T04:40:18.525Z,75.00
2019-01-19T04:42:45.841Z,75.19
2019-01-19T04:45:12.712Z,74.79
2019-01-19T04:47:39.955Z,74.69
2019-01-19T04:50:09.465Z,74.21
2019-01-19T04:52:37.637Z,74.05
2019-01-19T04:55:04.404Z,74.06
2019-01-19T04:57:31.111Z,74.10
2019-01-19T04:59:57.843Z,74.20
2019-01-19T05:02:27.019Z,74.02
2019-01-19T05:04:53.704Z,73.98
2019-01-19T05:07:20.598Z,74.32
2019-01-19T05:09:47.787Z,74.54
2019-01-19T05:12:14.538Z,74.62
2019-01-19T05:14:41.259Z,74.24
2019-01-19T05:17:08.014Z,74.43
2019-01-19T05:19:34.884Z,74.19
2019-01-19T05:22:01.635Z,74.34
2019-01-19T05:24:28.701Z,74.01
2019-01-19T05:26:55.446Z,74.51
2019-01-19T05:29:22.167Z,74.37
2019-01-19T05:31:48.909Z,74.34
2019-01-19T05:34:15.716Z,74.48
2019-01-19T05:36:45.069Z,73.87
2019-01-19T05:39:12.409Z,73.86
2019-01-19T05:41:39.167Z,74.13
2019-01-19T05:44:06.304Z,73.91
2019-01-19T05:46:35.977Z,73.96
2019-01-19T05:49:02.716Z,73.92
2019-01-19T05:51:29.456Z,74.00
2019-01-19T05:53:56.276Z,73.70
2019-01-19T05:56:25.784Z,73.87
2019-01-19T05:58:52.517Z,73.64
2019-01-19T06:01:19.747Z,73.93
2019-01-19T06:03:46.470Z,74.14
2019-01-19T06:06:13.173Z,73.83
2019-01-19T06:08:40.387Z,73.69
2019-01-19T06:11:07.112Z,73.91
2019-01-19T06:13:33.836Z,73.97
2019-01-19T06:16:00.579Z,73.99
2019-01-19T06:18:28.999Z,73.74
2019-01-19T06:20:55.764Z,73.92
2019-01-19T06:23:22.531Z,72.83
2019-01-19T06:25:49.390Z,73.15
2019-01-19T06:28:16.122Z,73.44
2019-01-19T06:30:42.864Z,72.69
2019-01-19T06:33:09.583Z,73.07
2019-01-19T06:35:38.202Z,72.79
2019-01-19T06:38:05.318Z,72.80
2019-01-19T06:40:32.032Z,73.43
2019-01-19T06:42:58.907Z,73.53
2019-01-19T06:45:25.799Z,73.66
2019-01-19T06:47:54.462Z,73.40
2019-01-19T06:50:21.182Z,73.20
2019-01-19T06:52:48.213Z,73.66
2019-01-19T06:55:17.668Z,74.16
2019-01-19T06:57:44.491Z,74.56
2019-01-19T07:00:13.494Z,74.02
2019-01-19T07:02:40.363Z,73.99
2019-01-19T07:05:07.115Z,73.59
2019-01-19T07:07:33.845Z,73.81
2019-01-19T07:10:00.674Z,74.96
2019-01-19T07:12:27.413Z,74.40
2019-01-19T07:14:54.242Z,74.17
2019-01-19T07:17:21.041Z,73.66
2019-01-19T07:19:48.157Z,74.02
2019-01-19T07:22:14.970Z,73.66
2019-01-19T07:24:41.780Z,73.29
2019-01-19T07:27:08.532Z,73.61
2019-01-19T07:29:35.604Z,73.45
2019-01-19T07:32:02.475Z,73.44
2019-01-19T07:34:32.047Z,73.30
2019-01-19T07:36:58.790Z,73.87
2019-01-19T07:39:25.637Z,73.60
2019-01-19T07:41:52.578Z,72.91
2019-01-19T07:44:19.525Z,72.98
2019-01-19T07:46:46.769Z,73.05
2019-01-19T07:49:13.630Z,73.19
2019-01-19T07:51:43.024Z,73.46
2019-01-19T07:54:09.873Z,72.88
2019-01-19T07:56:36.990Z,72.95
2019-01-19T07:59:03.712Z,73.08
2019-01-19T08:01:30.603Z,72.82
2019-01-19T08:03:57.310Z,72.62
2019-01-19T08:06:24.044Z,73.06
2019-01-19T08:08:50.819Z,72.96
2019-01-19T08:11:17.551Z,72.57
2019-01-19T08:13:44.290Z,72.45
2019-01-19T08:16:11.042Z,72.31
2019-01-19T08:18:37.858Z,72.31
2019-01-19T08:21:04.552Z,72.45
2019-01-19T08:23:31.330Z,72.68
2019-01-19T08:25:58.066Z,72.70
2019-01-19T08:28:24.829Z,72.95
2019-01-19T08:30:51.558Z,73.21
2019-01-19T08:33:18.388Z,72.82
2019-01-19T08:35:45.879Z,72.23
2019-01-19T08:38:14.363Z,71.66
2019-01-19T08:40:41.453Z,71.54
2019-01-19T08:43:16.876Z,71.65
2019-01-19T08:45:43.872Z,71.15
2019-01-19T08:48:11.077Z,71.05
2019-01-19T08:50:37.914Z,71.48
2019-01-19T08:53:04.963Z,71.57
2019-01-19T08:55:33.387Z,71.87
2019-01-19T08:58:00.217Z,71.27
2019-01-19T09:00:27.008Z,70.70
2019-01-19T09:02:58.142Z,70.70
2019-01-19T09:05:25.013Z,70.39
2019-01-19T09:07:51.786Z,70.54
2019-01-19T09:10:18.708Z,70.05
2019-01-19T09:12:45.482Z,70.42
2019-01-19T09:15:13.313Z,70.17
2019-01-19T09:17:40.103Z,70.14
2019-01-19T09:20:08.198Z,69.64
2019-01-19T09:22:35.251Z,69.16
2019-01-19T09:25:02.049Z,68.16
2019-01-19T09:27:28.876Z,68.17
2019-01-19T09:29:56.018Z,68.05
2019-01-19T09:32:23.345Z,67.70
2019-01-19T09:34:50.103Z,67.36
2019-01-19T09:37:16.875Z,67.50
2019-01-19T09:39:43.619Z,67.75
2019-01-19T09:42:10.363Z,67.25
2019-01-19T09:44:37.229Z,66.83
2019-01-19T09:47:03.985Z,67.46
2019-01-19T09:49:30.783Z,67.47
2019-01-19T09:51:57.653Z,67.11
2019-01-19T09:54:24.944Z,66.93
2019-01-19T09:56:52.081Z,66.56
2019-01-19T09:59:19.172Z,65.47
2019-01-19T10:01:46.616Z,65.62
2019-01-19T10:04:19.399Z,65.17
2019-01-19T10:06:48.234Z,65.04
2019-01-19T10:09:15.757Z,65.39
2019-01-19T10:11:42.709Z,64.81
2019-01-19T10:14:10.933Z,64.85
2019-01-19T10:16:37.822Z,64.32
2019-01-19T10:19:04.837Z,63.97
2019-01-19T10:21:32.430Z,63.75
2019-01-19T10:23:59.185Z,63.46
2019-01-19T10:26:27.049Z,62.62
2019-01-19T10:28:56.497Z,62.43
2019-01-19T10:31:23.455Z,62.50
2019-01-19T10:33:50.270Z,62.39
2019-01-19T10:36:19.245Z,62.35
2019-01-19T10:38:46.905Z,62.40
2019-01-19T10:41:13.738Z,62.16
2019-01-19T10:43:40.930Z,61.82
2019-01-19T10:46:08.296Z,61.91
2019-01-19T10:48:35.307Z,61.58
2019-01-19T10:51:02.446Z,61.44
2019-01-19T10:53:29.485Z,61.21
2019-01-19T10:55:56.577Z,61.36
2019-01-19T10:58:23.488Z,61.22
2019-01-19T11:00:50.422Z,61.18
2019-01-19T11:03:17.557Z,60.55
2019-01-19T11:05:44.383Z,60.74
2019-01-19T11:08:12.116Z,59.70
2019-01-19T11:10:39.008Z,59.21
2019-01-19T11:13:05.854Z,58.60
2019-01-19T11:15:35.211Z,58.74
2019-01-19T11:18:02.065Z,58.48
2019-01-19T11:20:30.874Z,58.87
2019-01-19T11:22:58.908Z,58.34
2019-01-19T11:25:26.240Z,57.87
2019-01-19T11:27:53.284Z,57.43
2019-01-19T11:30:22.185Z,57.56
2019-01-19T11:32:49.100Z,57.17
2019-01-19T11:35:16.562Z,57.11
2019-01-19T11:37:43.446Z,56.72
2019-01-19T11:40:13.245Z,57.07
2019-01-19T11:42:40.048Z,55.97
2019-01-19T11:45:09.274Z,56.87
2019-01-19T11:47:36.287Z,56.55
2019-01-19T11:50:03.888Z,56.50
2019-01-19T11:52:31.199Z,56.38
2019-01-19T11:54:59.899Z,56.54
2019-01-19T11:57:26.666Z,56.29
2019-01-19T11:59:53.637Z,55.54
2019-01-19T12:02:20.547Z,55.20
2019-01-19T12:04:47.531Z,55.10
2019-01-19T12:07:15.497Z,55.55
2019-01-19T12:09:42.236Z,54.47
2019-01-19T12:12:10.111Z,54.82
2019-01-19T12:14:37.135Z,54.00
2019-01-19T12:17:05.306Z,53.96
2019-01-19T12:19:34.904Z,53.77
2019-01-19T12:22:01.864Z,53.43
2019-01-19T12:24:29.735Z,53.40
2019-01-19T12:26:56.719Z,52.86
2019-01-19T12:29:23.594Z,53.07
2019-01-19T12:31:50.484Z,52.46
2019-01-19T12:34:17.729Z,51.81
2019-01-19T12:36:44.658Z,51.58
2019-01-19T12:39:11.445Z,50.91
2019-01-19T12:41:38.304Z,49.73
2019-01-19T12:44:06.682Z,50.00
2019-01-19T12:46:33.461Z,49.91
2019-01-19T12:49:00.358Z,49.25
2019-01-19T12:51:29.772Z,49.25
2019-01-19T12:53:56.566Z,48.64
2019-01-19T12:56:23.477Z,48.64
2019-01-19T12:58:50.538Z,48.42
2019-01-19T13:01:17.440Z,48.42
2019-01-19T13:03:44.230Z,48.22
2019-01-19T13:06:50.982Z,47.83
2019-01-19T13:09:21.055Z,47.21
2019-01-19T13:12:11.944Z,47.88
2019-01-19T13:14:56.314Z,47.88
2019-01-19T13:17:56.407Z,47.48
2019-01-19T13:20:41.884Z,46.91
2019-01-19T13:23:34.288Z,46.91
2019-01-19T13:27:01.911Z,46.23
2019-01-19T13:30:03.296Z,46.15
2019-01-19T13:32:59.162Z,46.19
2019-01-19T13:36:04.839Z,46.19
2019-01-19T13:39:05.960Z,45.81
2019-01-19T13:42:09.693Z,46.07
2019-01-19T13:45:13.368Z,46.07
2019-01-19T13:48:17.987Z,46.15
2019-01-19T13:51:07.178Z,46.15
2019-01-19T13:54:04.342Z,46.43
2019-01-19T13:57:14.867Z,45.86
2019-01-19T14:00:39.730Z,45.86
2019-01-19T14:03:59.901Z,46.89
2019-01-19T14:07:08.101Z,48.37
2019-01-19T14:10:16.022Z,50.16
2019-01-19T14:13:22.585Z,51.52
2019-01-19T14:16:32.670Z,53.03
2019-01-19T14:19:50.438Z,53.14
2019-01-19T14:23:01.623Z,53.14
2019-01-19T14:26:01.229Z,53.82
2019-01-19T14:28:56.645Z,54.23
2019-01-19T14:31:56.490Z,53.88
2019-01-19T14:34:53.236Z,54.22
2019-01-19T14:37:58.762Z,55.19
2019-01-19T14:41:01.339Z,55.38
2019-01-19T14:44:13.199Z,55.48
2019-01-19T14:47:20.286Z,55.82
2019-01-19T14:50:18.526Z,56.09
2019-01-19T14:53:27.458Z,56.50
2019-01-19T14:56:27.510Z,56.72
2019-01-19T14:59:54.854Z,56.66
2019-01-19T15:02:44.918Z,56.63
2019-01-19T15:05:47.500Z,57.52
2019-01-19T15:08:42.110Z,57.42
2019-01-19T15:12:00.097Z,57.89
2019-01-19T15:15:03.428Z,58.13
2019-01-19T15:18:17.104Z,57.84
2019-01-19T15:21:25.634Z,57.60
2019-01-19T15:24:39.700Z,57.77
2019-01-19T15:27:50.806Z,57.62
2019-01-19T15:31:03.101Z,57.96
2019-01-19T15:33:56.275Z,57.82
2019-01-19T15:36:48.199Z,58.01
2019-01-19T15:40:09.417Z,57.78
2019-01-19T15:43:12.213Z,57.86
2019-01-19T15:46:35.875Z,58.12
2019-01-19T15:49:36.483Z,58.55
2019-01-19T15:52:36.807Z,58.71
2019-01-19T15:56:03.495Z,58.77
2019-01-19T15:59:02.609Z,59.25
2019-01-19T16:02:19.508Z,59.37
2019-01-19T16:04:54.332Z,59.21
2019-01-19T16:07:51.762Z,59.36
2019-01-19T16:10:43.510Z,59.40
2019-01-19T16:13:44.775Z,59.25
2019-01-19T16:16:23.267Z,59.43
2019-01-19T16:19:26.033Z,59.57
2019-01-19T16:22:40.479Z,60.05
2019-01-19T16:25:40.759Z,60.17
2019-01-19T16:29:17.146Z,60.11
2019-01-19T16:32:18.718Z,59.67
2019-01-19T16:35:20.909Z,60.17
2019-01-19T16:38:09.441Z,60.24
2019-01-19T16:41:03.441Z,60.34
2019-01-19T16:43:54.479Z,60.40
2019-01-19T16:47:05.303Z,60.82
2019-01-19T16:50:25.883Z,60.99
2019-01-19T16:53:11.946Z,60.73
2019-01-19T16:56:01.877Z,60.88
2019-01-19T16:58:55.815Z,61.31
2019-01-19T17:01:55.753Z,61.59
2019-01-19T17:04:58.020Z,61.43
2019-01-19T17:08:01.355Z,61.36
2019-01-19T17:11:02.063Z,61.55
2019-01-19T17:13:52.237Z,62.28
2019-01-19T17:16:54.135Z,62.13
2019-01-19T17:19:58.541Z,62.48
2019-01-19T17:22:47.525Z,62.99
2019-01-19T17:25:39.349Z,63.18
2019-01-19T17:29:07.087Z,63.28
2019-01-19T17:32:08.224Z,63.22
2019-01-19T17:35:16.025Z,62.98
2019-01-19T17:37:58.143Z,62.86
2019-01-19T17:41:05.302Z,63.28
2019-01-19T17:43:38.912Z,63.25
2019-01-19T17:46:44.031Z,63.49
2019-01-19T17:49:43.176Z,63.36
2019-01-19T17:52:35.546Z,62.95
2019-01-19T17:55:45.368Z,63.03
2019-01-19T17:59:01.329Z,63.12
2019-01-19T18:02:00.449Z,63.10
2019-01-19T18:04:57.282Z,63.02
2019-01-19T18:08:01.136Z,63.51
2019-01-19T18:10:53.566Z,63.48
2019-01-19T18:14:04.137Z,63.84
2019-01-19T18:17:27.918Z,63.75
2019-01-19T18:20:21.131Z,63.83
2019-01-19T18:23:25.864Z,64.13
2019-01-19T18:26:25.654Z,64.42
2019-01-19T18:29:07.688Z,64.74
2019-01-19T18:31:54.254Z,64.61
2019-01-19T18:34:56.609Z,64.70
2019-01-19T18:38:07.194Z,64.51
2019-01-19T18:41:01.677Z,64.98
2019-01-19T18:44:19.506Z,65.15
2019-01-19T18:47:20.106Z,65.51
2019-01-19T18:50:27.352Z,65.95
2019-01-19T18:53:27.127Z,65.79
2019-01-19T18:56:21.570Z,65.69
2019-01-19T18:59:16.942Z,65.42
2019-01-19T19:02:43.780Z,65.53
2019-01-19T19:05:46.751Z,66.21
2019-01-19T19:08:51.714Z,65.75
2019-01-19T19:12:11.985Z,65.99
2019-01-19T19:15:04.599Z,65.83
2019-01-19T19:17:58.177Z,66.71
2019-01-19T19:21:08.973Z,66.67
2019-01-19T19:24:32.672Z,66.84
2019-01-19T19:27:32.050Z,67.07
2019-01-19T19:30:27.952Z,67.41
2019-01-19T19:33:22.274Z,67.80
2019-01-19T19:36:26.039Z,67.39
2019-01-19T19:39:37.215Z,67.89
2019-01-19T19:42:45.264Z,68.11
2019-01-19T19:45:57.033Z,67.90
2019-01-19T19:49:07.257Z,67.81
2019-01-19T19:52:00.880Z,67.64
2019-01-19T19:54:28.762Z,68.15
2019-01-19T19:56:55.765Z,68.07
2019-01-19T19:59:22.501Z,67.92
2019-01-19T20:01:49.368Z,67.43
2019-01-19T20:04:16.136Z,67.63
2019-01-19T20:06:43.121Z,67.06
2019-01-19T20:09:09.851Z,67.28
2019-01-19T20:11:36.845Z,66.98
2019-01-19T20:14:03.641Z,67.22
2019-01-19T20:16:31.041Z,67.30
2019-01-19T20:18:57.786Z,67.23
2019-01-19T20:21:24.617Z,67.42
2019-01-19T20:23:51.622Z,67.17
2019-01-19T20:26:18.394Z,67.22
2019-01-19T20:28:45.149Z,67.86
2019-01-19T20:31:11.920Z,67.58
2019-01-19T20:33:38.707Z,67.97
2019-01-19T20:36:05.609Z,67.77
2019-01-19T20:38:32.400Z,68.02
2019-01-19T20:40:59.128Z,68.01
2019-01-19T20:43:26.050Z,68.34
2019-01-19T20:45:53.456Z,68.55
2019-01-19T20:48:20.327Z,68.41
2019-01-19T20:50:47.318Z,68.45
2019-01-19T20:53:14.071Z,68.70
2019-01-19T20:55:41.027Z,69.37
2019-01-19T20:58:08.158Z,69.44
2019-01-19T21:00:35.328Z,69.27
2019-01-19T21:03:02.172Z,69.67
2019-01-19T21:05:29.381Z,69.37
2019-01-19T21:07:56.215Z,70.22
2019-01-19T21:10:23.043Z,69.06
2019-01-19T21:12:50.794Z,69.52
2019-01-19T21:15:17.530Z,69.46
2019-01-19T21:17:44.314Z,69.13
2019-01-19T21:20:11.793Z,69.40
2019-01-19T21:22:38.599Z,68.87
2019-01-19T21:25:06.435Z,68.94
2019-01-19T21:27:33.254Z,68.72
2019-01-19T21:29:59.981Z,69.14
2019-01-19T21:32:26.710Z,69.14
2019-01-19T21:34:53.491Z,69.40
2019-01-19T21:37:20.318Z,69.69
2019-01-19T21:39:47.144Z,69.81
2019-01-19T21:42:13.917Z,69.78
2019-01-19T21:44:41.062Z,70.03
2019-01-19T21:47:07.840Z,69.36
2019-01-19T21:49:34.728Z,69.66
2019-01-19T21:52:01.579Z,69.72
2019-01-19T21:54:28.430Z,69.92
2019-01-19T21:56:55.313Z,70.08
2019-01-19T21:59:22.110Z,69.58
2019-01-19T22:01:48.925Z,69.79
2019-01-19T22:04:15.681Z,70.00
2019-01-19T22:06:42.410Z,69.30
2019-01-19T22:09:09.211Z,69.71
2019-01-19T22:11:36.130Z,69.69
2019-01-19T22:14:04.321Z,69.37
2019-01-19T22:16:32.359Z,68.97
2019-01-19T22:18:59.209Z,69.52
2019-01-19T22:21:34.514Z,69.40
2019-01-19T22:24:01.274Z,69.58
2019-01-19T22:26:28.447Z,69.48
2019-01-19T22:28:55.305Z,69.77
2019-01-19T22:31:24.439Z,70.06
2019-01-19T22:33:51.404Z,70.44
2019-01-19T22:36:19.263Z,70.29
2019-01-19T22:38:46.137Z,70.13
2019-01-19T22:41:13.075Z,70.22
2019-01-19T22:43:39.802Z,69.93
2019-01-19T22:46:07.057Z,69.70
2019-01-19T22:48:33.789Z,70.17
2019-01-19T22:51:00.525Z,69.90
2019-01-19T22:53:27.290Z,70.46
2019-01-19T22:55:54.330Z,70.65
2019-01-19T22:58:21.475Z,70.39
2019-01-19T23:01:01.739Z,70.30
2019-01-19T23:03:30.952Z,70.11
2019-01-19T23:05:57.663Z,69.91
2019-01-19T23:08:24.428Z,69.45
2019-01-19T23:10:51.378Z,70.50
2019-01-19T23:13:18.283Z,71.62
2019-01-19T23:15:45.139Z,71.23
2019-01-19T23:18:11.890Z,70.85
2019-01-19T23:20:38.910Z,70.62
2019-01-19T23:23:05.686Z,70.62
2019-01-19T23:25:32.496Z,70.16
2019-01-19T23:27:59.277Z,69.94
2019-01-19T23:30:26.291Z,69.46
2019-01-19T23:32:53.052Z,69.65
2019-01-19T23:35:19.828Z,69.70
2019-01-19T23:37:46.813Z,69.64
2019-01-19T23:40:13.869Z,69.14
2019-01-19T23:42:47.107Z,69.45
2019-01-19T23:45:10.562Z,69.78
2019-01-19T23:47:37.351Z,70.41
2019-01-19T23:50:04.297Z,69.99
2019-01-19T23:52:31.054Z,70.70
2019-01-19T23:54:57.945Z,70.59
2019-01-19T23:57:24.763Z,70.48
2019-01-19T23:59:51.885Z,68.92
